createdAt,value
2022-10-23T00:01:47.317Z,97784.97
2022-10-23T00:04:19.411Z,97786.32
2022-10-23T00:06:49.230Z,97792.35
2022-10-23T00:09:21.051Z,97786.54
2022-10-23T00:11:52.849Z,97788.73
2022-10-23T00:14:23.994Z,97783.60
2022-10-23T00:16:53.135Z,97783.73
2022-10-23T00:19:23.870Z,97789.64
2022-10-23T00:21:52.047Z,97788.42
2022-10-23T00:24:20.234Z,97796.02
2022-10-23T00:26:51.029Z,97795.26
2022-10-23T00:29:20.533Z,97794.89
2022-10-23T00:31:48.594Z,97796.66
2022-10-23T00:34:19.574Z,97807.69
2022-10-23T00:36:48.899Z,97818.20
2022-10-23T00:39:18.881Z,97807.29
2022-10-23T00:41:47.158Z,97812.52
2022-10-23T00:44:18.811Z,97812.95
2022-10-23T00:46:48.118Z,97812.77
2022-10-23T00:49:18.882Z,97813.35
2022-10-23T00:51:53.150Z,97813.23
2022-10-23T00:54:25.753Z,97824.06
2022-10-23T00:56:58.646Z,97822.30
2022-10-23T00:59:26.900Z,97820.17
2022-10-23T01:01:55.338Z,97822.52
2022-10-23T01:04:25.596Z,97817.73
2022-10-23T01:07:09.710Z,97817.71
2022-10-23T01:09:46.839Z,97823.21
2022-10-23T01:12:23.831Z,97827.70
2022-10-23T01:15:17.096Z,97832.80
2022-10-23T01:17:56.486Z,97844.64
2022-10-23T01:21:14.048Z,97851.14
2022-10-23T01:24:01.048Z,97848.74
2022-10-23T01:27:02.991Z,97846.73
2022-10-23T01:29:48.787Z,97859.73
2022-10-23T01:32:28.211Z,97865.48
2022-10-23T01:35:13.172Z,97867.01
2022-10-23T01:37:49.965Z,97867.08
2022-10-23T01:40:53.374Z,97864.11
2022-10-23T01:43:31.148Z,97862.36
2022-10-23T01:46:07.591Z,97865.55
2022-10-23T01:48:38.756Z,97872.55
2022-10-23T01:51:11.915Z,97874.10
2022-10-23T01:53:44.203Z,97881.50
2022-10-23T01:56:22.857Z,97877.66
2022-10-23T01:58:54.751Z,97883.65
2022-10-23T02:01:26.354Z,97885.14
2022-10-23T02:06:26.943Z,97887.73
2022-10-23T02:08:55.391Z,97895.48
2022-10-23T02:11:23.675Z,97895.73
2022-10-23T02:13:58.058Z,97892.75
2022-10-23T02:16:28.980Z,97893.80
2022-10-23T02:19:08.020Z,97900.48
2022-10-23T02:21:51.983Z,97911.77
2022-10-23T02:24:29.405Z,97906.29
2022-10-23T02:27:13.839Z,97910.92
2022-10-23T02:30:08.713Z,97908.86
2022-10-23T02:32:41.964Z,97924.70
2022-10-23T02:35:13.126Z,97920.08
2022-10-23T02:37:41.508Z,97924.91
2022-10-23T02:40:11.934Z,97937.46
2022-10-23T02:43:08.296Z,97931.70
2022-10-23T02:45:45.981Z,97931.56
2022-10-23T02:48:31.494Z,97940.98
2022-10-23T02:51:32.009Z,97947.98
2022-10-23T02:54:32.031Z,97958.04
2022-10-23T02:57:12.761Z,97957.39
2022-10-23T02:59:51.261Z,97956.86
2022-10-23T03:02:24.551Z,97961.13
2022-10-23T03:04:56.119Z,97966.33
2022-10-23T03:07:26.335Z,97975.42
2022-10-23T03:09:59.070Z,97974.59
2022-10-23T03:12:27.205Z,97977.73
2022-10-23T03:14:55.837Z,97983.48
2022-10-23T03:17:25.444Z,97979.34
2022-10-23T03:19:55.634Z,97987.58
2022-10-23T03:22:23.739Z,97990.56
2022-10-23T03:24:54.723Z,97993.46
2022-10-23T03:27:22.740Z,97992.34
2022-10-23T03:29:50.981Z,97991.80
2022-10-23T03:32:22.088Z,97993.90
2022-10-23T03:34:52.216Z,98004.11
2022-10-23T03:37:20.379Z,98012.65
2022-10-23T03:39:49.594Z,98018.77
2022-10-23T03:42:19.617Z,98022.48
2022-10-23T03:44:48.461Z,98019.27
2022-10-23T03:47:18.988Z,98029.92
2022-10-23T03:49:46.995Z,98029.10
2022-10-23T03:52:17.141Z,98038.17
2022-10-23T03:54:45.217Z,98034.66
2022-10-23T03:57:13.154Z,98033.36
2022-10-23T03:59:42.517Z,98031.71
2022-10-23T04:02:10.906Z,98033.32
2022-10-23T04:04:38.890Z,98035.44
2022-10-23T04:07:06.928Z,98034.77
2022-10-23T04:09:35.108Z,98036.33
2022-10-23T04:12:05.028Z,98039.64
2022-10-23T04:14:33.015Z,98039.96
2022-10-23T04:17:00.968Z,98041.03
2022-10-23T04:19:29.427Z,98046.45
2022-10-23T04:21:58.268Z,98044.37
2022-10-23T04:24:26.901Z,98047.67
2022-10-23T04:26:55.065Z,98047.23
2022-10-23T04:29:24.723Z,98047.63
2022-10-23T04:31:52.939Z,98046.65
2022-10-23T04:34:21.002Z,98047.64
2022-10-23T04:36:49.696Z,98048.33
2022-10-23T04:39:18.366Z,98054.08
2022-10-23T04:41:47.214Z,98063.38
2022-10-23T04:44:15.274Z,98055.11
2022-10-23T04:46:43.241Z,98058.80
2022-10-23T04:49:11.372Z,98060.44
2022-10-23T04:51:58.479Z,98063.41
2022-10-23T04:55:01.826Z,98068.73
2022-10-23T04:57:53.183Z,98068.25
2022-10-23T05:00:24.928Z,98068.56
2022-10-23T05:02:55.471Z,98073.39
2022-10-23T05:05:23.861Z,98079.57
2022-10-23T05:07:51.764Z,98081.84
2022-10-23T05:10:37.953Z,98090.11
2022-10-23T05:13:12.844Z,98080.11
2022-10-23T05:18:17.111Z,98096.09
2022-10-23T05:20:47.711Z,98097.55
2022-10-23T05:23:18.381Z,98101.47
2022-10-23T05:25:55.458Z,98105.83
2022-10-23T05:28:24.225Z,98108.50
2022-10-23T05:30:52.935Z,98113.73
2022-10-23T05:33:25.333Z,98115.70
2022-10-23T05:35:54.059Z,98116.23
2022-10-23T05:38:23.786Z,98117.35
2022-10-23T05:40:53.149Z,98121.86
2022-10-23T05:43:23.662Z,98128.25
2022-10-23T05:45:59.363Z,98126.41
2022-10-23T05:48:51.997Z,98127.85
2022-10-23T05:51:23.074Z,98134.10
2022-10-23T05:54:08.349Z,98140.72
2022-10-23T05:56:49.504Z,98137.04
2022-10-23T05:59:23.465Z,98143.21
2022-10-23T06:01:51.614Z,98144.19
2022-10-23T06:04:31.046Z,98146.52
2022-10-23T06:07:32.410Z,98155.71
2022-10-23T06:10:06.585Z,98161.08
2022-10-23T06:12:37.564Z,98158.99
2022-10-23T06:15:07.268Z,98163.08
2022-10-23T06:17:52.287Z,98164.72
2022-10-23T06:20:26.592Z,98171.23
2022-10-23T06:23:06.683Z,98171.23
2022-10-23T06:25:53.898Z,98174.66
2022-10-23T06:28:25.400Z,98179.81
2022-10-23T06:30:54.774Z,98176.27
2022-10-23T06:33:23.021Z,98189.21
2022-10-23T06:35:52.121Z,98193.86
2022-10-23T06:38:20.087Z,98199.19
2022-10-23T06:40:55.447Z,98190.81
2022-10-23T06:43:43.931Z,98191.86
2022-10-23T06:46:24.336Z,98193.02
2022-10-23T06:49:30.601Z,98192.36
2022-10-23T06:51:59.409Z,98195.55
2022-10-23T06:54:27.901Z,98192.88
2022-10-23T06:57:15.308Z,98196.38
2022-10-23T06:59:47.630Z,98192.89
2022-10-23T07:02:17.543Z,98198.90
2022-10-23T07:04:46.001Z,98201.63
2022-10-23T07:07:18.400Z,98206.70
2022-10-23T07:09:48.880Z,98218.14
2022-10-23T07:12:28.396Z,98215.21
2022-10-23T07:15:16.885Z,98213.13
2022-10-23T07:17:47.071Z,98211.98
2022-10-23T07:20:15.625Z,98212.71
2022-10-23T07:22:44.340Z,98214.70
2022-10-23T07:25:16.670Z,98208.56
2022-10-23T07:27:46.278Z,98210.56
2022-10-23T07:30:16.344Z,98204.97
2022-10-23T07:32:53.159Z,98206.63
2022-10-23T07:35:24.907Z,98199.59
2022-10-23T07:38:14.748Z,98200.90
2022-10-23T07:40:49.518Z,98205.50
2022-10-23T07:43:20.850Z,98210.08
2022-10-23T07:45:50.191Z,98211.25
2022-10-23T07:48:29.839Z,98211.83
2022-10-23T07:51:08.418Z,98215.35
2022-10-23T07:53:57.417Z,98223.25
2022-10-23T07:56:44.722Z,98224.11
2022-10-23T07:59:13.560Z,98232.73
2022-10-23T08:01:43.605Z,98229.77
2022-10-23T08:04:14.465Z,98233.05
2022-10-23T08:07:05.164Z,98229.42
2022-10-23T08:09:39.537Z,98231.43
2022-10-23T08:12:10.274Z,98227.29
2022-10-23T08:14:39.642Z,98227.52
2022-10-23T08:17:10.033Z,98231.14
2022-10-23T08:19:57.393Z,98230.06
2022-10-23T08:22:27.615Z,98228.91
2022-10-23T08:24:55.720Z,98232.52
2022-10-23T08:27:25.735Z,98234.89
2022-10-23T08:29:53.786Z,98240.98
2022-10-23T08:32:22.043Z,98245.45
2022-10-23T08:34:56.839Z,98242.33
2022-10-23T08:37:26.419Z,98246.48
2022-10-23T08:40:04.397Z,98239.40
2022-10-23T08:43:10.103Z,98234.33
2022-10-23T08:45:55.904Z,98233.52
2022-10-23T08:48:51.744Z,98243.61
2022-10-23T08:52:10.382Z,98239.48
2022-10-23T08:55:03.477Z,98237.85
2022-10-23T08:57:41.325Z,98247.68
2022-10-23T09:00:16.126Z,98247.84
2022-10-23T09:02:52.669Z,98248.17
2022-10-23T09:05:35.723Z,98251.94
2022-10-23T09:08:22.209Z,98245.38
2022-10-23T09:11:04.094Z,98247.05
2022-10-23T09:14:10.950Z,98246.06
2022-10-23T09:17:07.429Z,98247.96
2022-10-23T09:19:35.697Z,98256.11
2022-10-23T09:22:05.881Z,98248.67
2022-10-23T09:24:36.584Z,98249.73
2022-10-23T09:29:36.272Z,98240.69
2022-10-23T09:32:07.143Z,98244.91
2022-10-23T09:34:37.628Z,98237.61
2022-10-23T09:37:29.559Z,98240.02
2022-10-23T09:40:22.448Z,98243.27
2022-10-23T09:43:17.476Z,98240.33
2022-10-23T09:45:58.509Z,98243.70
2022-10-23T09:48:27.503Z,98244.15
2022-10-23T09:51:01.966Z,98239.70
2022-10-23T09:53:48.844Z,98242.50
2022-10-23T09:56:42.253Z,98242.70
2022-10-23T09:59:15.040Z,98241.45
2022-10-23T10:01:52.679Z,98237.44
2022-10-23T10:04:49.437Z,98233.02
2022-10-23T10:07:20.990Z,98224.52
2022-10-23T10:09:50.384Z,98233.58
2022-10-23T10:12:40.556Z,98227.88
2022-10-23T10:15:34.859Z,98223.85
2022-10-23T10:18:17.746Z,98216.17
2022-10-23T10:20:55.208Z,98213.24
2022-10-23T10:23:37.237Z,98216.56
2022-10-23T10:26:23.010Z,98219.40
2022-10-23T10:29:29.960Z,98224.35
2022-10-23T10:32:17.564Z,98221.91
2022-10-23T10:34:53.975Z,98231.86
2022-10-23T10:38:10.250Z,98233.08
2022-10-23T10:40:56.972Z,98234.42
2022-10-23T10:43:40.602Z,98218.85
2022-10-23T10:46:27.737Z,98223.49
2022-10-23T10:49:01.961Z,98217.05
2022-10-23T10:52:05.349Z,98225.66
2022-10-23T10:54:57.105Z,98209.77
2022-10-23T10:57:35.634Z,98214.88
2022-10-23T11:00:17.420Z,98219.30
2022-10-23T11:02:50.330Z,98223.33
2022-10-23T11:05:44.610Z,98235.67
2022-10-23T11:08:56.099Z,98229.92
2022-10-23T11:11:37.501Z,98229.58
2022-10-23T11:14:18.355Z,98222.61
2022-10-23T11:17:17.272Z,98221.16
2022-10-23T11:20:21.654Z,98213.58
2022-10-23T11:23:04.251Z,98216.10
2022-10-23T11:26:01.099Z,98212.16
2022-10-23T11:29:12.464Z,98217.73
2022-10-23T11:32:00.166Z,98212.75
2022-10-23T11:35:02.257Z,98211.45
2022-10-23T11:37:30.763Z,98224.45
2022-10-23T11:40:22.637Z,98218.22
2022-10-23T11:42:52.262Z,98213.39
2022-10-23T11:45:48.667Z,98213.45
2022-10-23T11:48:29.491Z,98215.78
2022-10-23T11:50:59.142Z,98208.48
2022-10-23T11:53:37.131Z,98203.79
2022-10-23T11:56:23.924Z,98206.00
2022-10-23T11:58:56.041Z,98210.33
2022-10-23T12:01:30.388Z,98212.21
2022-10-23T12:04:13.721Z,98207.92
2022-10-23T12:07:04.867Z,98207.40
2022-10-23T12:10:06.150Z,98208.86
2022-10-23T12:12:43.227Z,98214.04
2022-10-23T12:15:11.332Z,98210.20
2022-10-23T12:17:41.125Z,98202.34
2022-10-23T12:20:12.310Z,98195.19
2022-10-23T12:22:58.750Z,98194.98
2022-10-23T12:26:02.688Z,98201.48
2022-10-23T12:28:42.855Z,98198.92
2022-10-23T12:31:25.405Z,98197.02
2022-10-23T12:33:56.164Z,98189.48
2022-10-23T12:36:45.677Z,98188.30
2022-10-23T12:39:30.740Z,98192.42
2022-10-23T12:41:59.804Z,98190.72
2022-10-23T12:44:29.156Z,98190.83
2022-10-23T12:47:03.257Z,98188.38
2022-10-23T12:49:35.700Z,98196.23
2022-10-23T12:52:16.650Z,98196.55
2022-10-23T12:54:45.979Z,98192.30
2022-10-23T12:57:28.967Z,98200.67
2022-10-23T13:00:10.469Z,98199.90
2022-10-23T13:02:40.829Z,98202.61
2022-10-23T13:05:15.029Z,98200.85
2022-10-23T13:07:48.350Z,98207.98
2022-10-23T13:10:20.373Z,98202.73
2022-10-23T13:13:07.238Z,98200.63
2022-10-23T13:15:40.326Z,98194.17
2022-10-23T13:18:10.588Z,98199.11
2022-10-23T13:20:43.224Z,98195.66
2022-10-23T13:23:36.029Z,98199.25
2022-10-23T13:26:35.411Z,98208.70
2022-10-23T13:29:16.124Z,98208.92
2022-10-23T13:31:44.131Z,98209.92
2022-10-23T13:34:28.279Z,98210.77
2022-10-23T13:36:59.306Z,98214.46
2022-10-23T13:39:34.507Z,98209.91
2022-10-23T13:42:15.590Z,98210.27
2022-10-23T13:44:44.254Z,98213.77
2022-10-23T13:47:14.558Z,98218.13
2022-10-23T13:49:42.591Z,98215.34
2022-10-23T13:52:14.098Z,98217.85
2022-10-23T13:54:43.729Z,98213.87
2022-10-23T13:57:14.977Z,98213.84
2022-10-23T13:59:43.228Z,98216.35
2022-10-23T14:02:23.728Z,98212.89
2022-10-23T14:04:54.294Z,98215.20
2022-10-23T14:07:22.241Z,98216.21
2022-10-23T14:09:50.715Z,98214.65
2022-10-23T14:12:18.916Z,98208.93
2022-10-23T14:14:52.608Z,98201.71
2022-10-23T14:17:21.569Z,98206.91
2022-10-23T14:19:50.860Z,98209.21
2022-10-23T14:22:18.824Z,98206.08
2022-10-23T14:24:49.687Z,98206.88
2022-10-23T14:27:17.773Z,98205.56
2022-10-23T14:29:47.910Z,98203.58
2022-10-23T14:32:18.512Z,98202.10
2022-10-23T14:34:51.908Z,98199.75
2022-10-23T14:37:20.699Z,98196.56
2022-10-23T14:39:50.291Z,98198.80
2022-10-23T14:42:18.775Z,98197.84
2022-10-23T14:44:49.626Z,98184.95
2022-10-23T14:47:19.759Z,98188.38
2022-10-23T14:49:52.008Z,98185.16
2022-10-23T14:52:20.894Z,98186.88
2022-10-23T14:54:52.345Z,98191.19
2022-10-23T14:57:22.774Z,98191.61
2022-10-23T14:59:50.994Z,98188.85
2022-10-23T15:02:20.636Z,98189.13
2022-10-23T15:04:49.966Z,98190.29
2022-10-23T15:07:18.523Z,98196.27
2022-10-23T15:09:46.427Z,98195.67
2022-10-23T15:12:14.487Z,98196.73
2022-10-23T15:14:42.731Z,98196.63
2022-10-23T15:17:15.735Z,98195.11
2022-10-23T15:19:44.571Z,98194.85
2022-10-23T15:22:12.606Z,98196.93
2022-10-23T15:24:41.259Z,98201.68
2022-10-23T15:29:43.036Z,98209.23
2022-10-23T15:32:13.068Z,98216.33
2022-10-23T15:34:42.982Z,98223.23
2022-10-23T15:37:11.819Z,98223.23
2022-10-23T15:39:40.669Z,98223.94
2022-10-23T15:42:10.401Z,98230.28
2022-10-23T15:44:40.165Z,98230.45
2022-10-23T15:47:08.270Z,98231.38
2022-10-23T15:49:39.914Z,98239.57
2022-10-23T15:54:43.160Z,98251.31
2022-10-23T15:57:11.140Z,98253.33
2022-10-23T15:59:39.495Z,98256.16
2022-10-23T16:02:09.343Z,98259.80
2022-10-23T16:04:37.389Z,98261.90
2022-10-23T16:07:05.648Z,98271.09
2022-10-23T16:09:33.712Z,98269.56
2022-10-23T16:12:03.007Z,98269.88
2022-10-23T16:14:34.917Z,98268.20
2022-10-23T16:17:04.177Z,98273.23
2022-10-23T16:19:32.335Z,98272.29
2022-10-23T16:22:05.219Z,98271.48
2022-10-23T16:24:34.235Z,98269.83
2022-10-23T16:27:02.401Z,98268.70
2022-10-23T16:29:30.822Z,98271.20
2022-10-23T16:31:59.983Z,98280.52
2022-10-23T16:34:28.283Z,98283.63
2022-10-23T16:36:56.948Z,98292.85
2022-10-23T16:39:31.680Z,98293.50
2022-10-23T16:42:26.044Z,98290.55
2022-10-23T16:45:15.614Z,98291.98
2022-10-23T16:47:43.759Z,98301.58
2022-10-23T16:50:12.179Z,98313.23
2022-10-23T16:52:40.361Z,98320.05
2022-10-23T16:55:08.787Z,98333.75
2022-10-23T16:57:37.196Z,98336.12
2022-10-23T17:00:06.920Z,98337.55
2022-10-23T17:02:38.053Z,98338.23
2022-10-23T17:05:09.038Z,98342.41
2022-10-23T17:07:37.292Z,98343.55
2022-10-23T17:10:06.067Z,98347.40
2022-10-23T17:12:35.771Z,98347.23
2022-10-23T17:15:05.636Z,98337.80
2022-10-23T17:17:34.074Z,98341.27
2022-10-23T17:20:04.077Z,98346.24
2022-10-23T17:22:32.168Z,98347.41
2022-10-23T17:25:01.463Z,98349.13
2022-10-23T17:27:29.454Z,98350.34
2022-10-23T17:29:58.309Z,98333.07
2022-10-23T17:32:26.470Z,98338.35
2022-10-23T17:34:54.728Z,98336.36
2022-10-23T17:37:22.784Z,98334.79
2022-10-23T17:39:50.797Z,98333.00
2022-10-23T17:42:19.265Z,98331.29
2022-10-23T17:44:47.332Z,98329.04
2022-10-23T17:47:15.395Z,98326.38
2022-10-23T17:49:45.511Z,98320.41
2022-10-23T17:52:16.886Z,98318.21
2022-10-23T17:54:45.503Z,98324.59
2022-10-23T17:57:13.472Z,98320.77
2022-10-23T17:59:41.614Z,98329.77
2022-10-23T18:02:13.127Z,98331.86
2022-10-23T18:04:42.471Z,98333.25
2022-10-23T18:07:11.427Z,98337.02
2022-10-23T18:09:39.418Z,98339.79
2022-10-23T18:12:07.797Z,98334.70
2022-10-23T18:14:38.019Z,98334.96
2022-10-23T18:17:06.112Z,98328.34
2022-10-23T18:19:34.332Z,98323.80
2022-10-23T18:22:03.071Z,98322.59
2022-10-23T18:24:31.390Z,98325.02
2022-10-23T18:27:01.898Z,98324.63
2022-10-23T18:29:31.506Z,98317.84
2022-10-23T18:32:00.076Z,98318.50
2022-10-23T18:34:28.110Z,98329.10
2022-10-23T18:36:58.641Z,98324.14
2022-10-23T18:39:28.690Z,98327.67
2022-10-23T18:41:58.194Z,98326.89
2022-10-23T18:44:29.139Z,98325.10
2022-10-23T18:46:59.126Z,98320.81
2022-10-23T18:49:27.976Z,98325.46
2022-10-23T18:51:58.770Z,98321.94
2022-10-23T18:54:26.864Z,98321.15
2022-10-23T18:56:55.397Z,98324.25
2022-10-23T18:59:24.269Z,98320.86
2022-10-23T19:01:54.633Z,98317.63
2022-10-23T19:04:22.656Z,98310.29
2022-10-23T19:06:51.712Z,98310.23
2022-10-23T19:09:20.520Z,98311.92
2022-10-23T19:11:48.632Z,98312.45
2022-10-23T19:14:16.667Z,98309.88
2022-10-23T19:16:57.977Z,98303.45
2022-10-23T19:19:30.250Z,98302.77
2022-10-23T19:21:59.327Z,98297.20
2022-10-23T19:24:36.620Z,98287.67
2022-10-23T19:27:05.781Z,98289.31
2022-10-23T19:29:37.182Z,98297.48
2022-10-23T19:32:05.464Z,98295.46
2022-10-23T19:34:34.090Z,98298.44
2022-10-23T19:37:02.327Z,98302.28
2022-10-23T19:39:30.881Z,98301.37
2022-10-23T19:41:59.134Z,98302.39
2022-10-23T19:44:29.742Z,98303.77
2022-10-23T19:46:57.720Z,98302.94
2022-10-23T19:49:25.832Z,98304.89
2022-10-23T19:51:54.154Z,98308.23
2022-10-23T19:54:22.281Z,98311.36
2022-10-23T19:56:52.502Z,98321.04
2022-10-23T19:59:20.596Z,98318.94
2022-10-23T20:01:49.353Z,98310.50
2022-10-23T20:04:19.490Z,98307.41
2022-10-23T20:06:48.230Z,98306.21
2022-10-23T20:09:16.726Z,98297.86
2022-10-23T20:11:45.474Z,98299.02
2022-10-23T20:14:13.927Z,98300.02
2022-10-23T20:16:45.373Z,98297.55
2022-10-23T20:21:47.969Z,98303.36
2022-10-23T20:24:18.828Z,98306.77
2022-10-23T20:26:53.468Z,98300.83
2022-10-23T20:29:23.202Z,98297.42
2022-10-23T20:31:52.178Z,98303.78
2022-10-23T20:34:20.304Z,98307.68
2022-10-23T20:36:49.639Z,98311.46
2022-10-23T20:39:25.625Z,98314.31
2022-10-23T20:41:55.431Z,98315.11
2022-10-23T20:44:24.015Z,98311.64
2022-10-23T20:46:53.287Z,98315.06
2022-10-23T20:49:23.450Z,98313.80
2022-10-23T20:51:55.718Z,98313.80
2022-10-23T20:54:28.918Z,98312.65
2022-10-23T20:56:58.889Z,98314.84
2022-10-23T20:59:28.444Z,98308.74
2022-10-23T21:01:57.463Z,98313.65
2022-10-23T21:04:27.935Z,98316.99
2022-10-23T21:07:09.499Z,98316.50
2022-10-23T21:09:40.331Z,98311.66
2022-10-23T21:12:09.583Z,98303.55
2022-10-23T21:14:38.034Z,98301.42
2022-10-23T21:17:08.713Z,98303.66
2022-10-23T21:19:39.222Z,98302.23
2022-10-23T21:22:07.288Z,98292.06
2022-10-23T21:24:37.758Z,98290.83
2022-10-23T21:27:06.220Z,98285.50
2022-10-23T21:29:34.895Z,98279.86
2022-10-23T21:32:02.901Z,98269.36
2022-10-23T21:34:30.954Z,98261.34
2022-10-23T21:37:15.090Z,98255.39
2022-10-23T21:39:44.632Z,98254.40
2022-10-23T21:42:14.358Z,98267.27
2022-10-23T21:44:42.403Z,98280.08
2022-10-23T21:47:10.810Z,98287.27
2022-10-23T21:49:38.802Z,98298.17
2022-10-23T21:52:06.961Z,98296.23
2022-10-23T21:54:35.269Z,98298.07
2022-10-23T21:57:03.515Z,98294.62
2022-10-23T21:59:34.818Z,98290.76
2022-10-23T22:02:04.190Z,98282.73
2022-10-23T22:04:33.672Z,98284.06
2022-10-23T22:07:02.926Z,98283.93
2022-10-23T22:09:32.582Z,98280.02
2022-10-23T22:12:01.699Z,98285.44
2022-10-23T22:14:30.001Z,98285.52
2022-10-23T22:16:59.217Z,98287.05
2022-10-23T22:19:28.149Z,98292.27
2022-10-23T22:21:56.081Z,98298.80
2022-10-23T22:24:24.391Z,98306.48
2022-10-23T22:26:55.803Z,98310.16
2022-10-23T22:29:29.358Z,98313.14
2022-10-23T22:31:58.436Z,98314.39
2022-10-23T22:34:51.852Z,98315.10
2022-10-23T22:37:21.220Z,98312.57
2022-10-23T22:39:53.177Z,98309.42
2022-10-23T22:42:22.553Z,98307.55
2022-10-23T22:44:51.483Z,98310.79
2022-10-23T22:47:20.117Z,98302.54
2022-10-23T22:49:48.269Z,98298.50
2022-10-23T22:52:16.784Z,98298.85
2022-10-23T22:54:44.867Z,98301.41
2022-10-23T22:57:12.862Z,98303.14
2022-10-23T22:59:43.259Z,98307.33
2022-10-23T23:02:11.922Z,98308.73
2022-10-23T23:04:39.977Z,98302.04
2022-10-23T23:07:11.765Z,98302.44
2022-10-23T23:09:42.501Z,98303.17
2022-10-23T23:12:12.939Z,98301.11
2022-10-23T23:14:41.956Z,98297.52
2022-10-23T23:17:10.612Z,98303.86
2022-10-23T23:19:38.734Z,98300.14
2022-10-23T23:22:06.793Z,98294.55
2022-10-23T23:24:35.373Z,98295.08
2022-10-23T23:27:03.737Z,98295.17
2022-10-23T23:29:32.431Z,98295.15
2022-10-23T23:32:01.566Z,98290.47
2022-10-23T23:34:31.160Z,98292.02
2022-10-23T23:37:00.209Z,98296.30
2022-10-23T23:39:29.017Z,98293.03
2022-10-23T23:41:57.360Z,98296.90
2022-10-23T23:44:25.455Z,98290.84
2022-10-23T23:46:53.419Z,98289.16
2022-10-23T23:49:21.738Z,98288.41
2022-10-23T23:51:51.890Z,98289.13
2022-10-23T23:54:19.813Z,98290.41
2022-10-23T23:56:47.759Z,98288.93
2022-10-23T23:59:15.798Z,98287.64
